SWA1668 KDAL-KSAT
Flight info
| Callsign | SWA1668 |
|---|---|
| Flight time | 0h 45m |
| Altitude | 32000 |
| Route | CURLO6 WINDU QERVO3 |
| Aircraft | B738/M-SADE2E3GIJ4RWZ/LB1D1 |
Departure
| Time | 2026-04-28 06:17 |
|---|---|
| Airport | Dallas Love Field (KDAL) |
Arrival
| Time | 2026-04-28 07:02 |
|---|---|
| Airport | San Antonio International Airport (KSAT) |
| Time | Latitude | Longitude | Altitude | Speed | Heading |
|---|---|---|---|---|---|
| 2026-04-28 05:41 | 32.84647 | -96.84795 | 485 ft | 0 kts | 179° |
| 2026-04-28 06:07 | 32.84648 | -96.84795 | 485 ft | 0 kts | 179° |
| 2026-04-28 06:07 | 32.84666 | -96.84795 | 485 ft | 2 kts | 179° |
| 2026-04-28 06:07 | 32.84681 | -96.84795 | 485 ft | 2 kts | 179° |
| 2026-04-28 06:08 | 32.84691 | -96.84795 | 485 ft | 2 kts | 179° |
| 2026-04-28 06:08 | 32.84700 | -96.84795 | 485 ft | 0 kts | 180° |
| 2026-04-28 06:12 | 32.84697 | -96.84797 | 485 ft | 1 kts | 207° |
| 2026-04-28 06:12 | 32.84698 | -96.84811 | 485 ft | 2 kts | 295° |
| 2026-04-28 06:12 | 32.84711 | -96.84841 | 485 ft | 6 kts | 298° |
| 2026-04-28 06:13 | 32.84734 | -96.84907 | 485 ft | 9 kts | 288° |
| 2026-04-28 06:13 | 32.84743 | -96.85017 | 483 ft | 16 kts | 271° |
| 2026-04-28 06:13 | 32.84744 | -96.85148 | 482 ft | 14 kts | 270° |
| 2026-04-28 06:13 | 32.84745 | -96.85259 | 481 ft | 12 kts | 275° |
| 2026-04-28 06:14 | 32.84784 | -96.85358 | 480 ft | 14 kts | 283° |
| 2026-04-28 06:14 | 32.84786 | -96.85480 | 478 ft | 15 kts | 266° |
| 2026-04-28 06:14 | 32.84770 | -96.85598 | 478 ft | 15 kts | 258° |
| 2026-04-28 06:14 | 32.84799 | -96.85703 | 478 ft | 14 kts | 316° |
| 2026-04-28 06:15 | 32.84887 | -96.85802 | 478 ft | 19 kts | 315° |
| 2026-04-28 06:15 | 32.84986 | -96.85917 | 477 ft | 19 kts | 319° |
| 2026-04-28 06:15 | 32.85078 | -96.86026 | 474 ft | 18 kts | 315° |
| 2026-04-28 06:15 | 32.85191 | -96.86159 | 469 ft | 16 kts | 315° |
| 2026-04-28 06:16 | 32.85186 | -96.86262 | 466 ft | 13 kts | 221° |
| 2026-04-28 06:16 | 32.85143 | -96.86308 | 466 ft | 11 kts | 220° |
| 2026-04-28 06:16 | 32.85078 | -96.86280 | 467 ft | 13 kts | 134° |
| 2026-04-28 06:16 | 32.84901 | -96.86078 | 474 ft | 69 kts | 136° |
| 2026-04-28 06:17 | 32.84385 | -96.85480 | 477 ft | 134 kts | 136° |
| 2026-04-28 06:17 | 32.83607 | -96.84561 | 687 ft | 170 kts | 136° |
| 2026-04-28 06:17 | 32.82805 | -96.83584 | 1507 ft | 169 kts | 136° |
| 2026-04-28 06:18 | 32.81102 | -96.81490 | 2351 ft | 198 kts | 136° |
| 2026-04-28 06:18 | 32.80089 | -96.80232 | 2667 ft | 224 kts | 136° |
| 2026-04-28 06:18 | 32.78961 | -96.78825 | 3172 ft | 243 kts | 136° |
| 2026-04-28 06:18 | 32.77766 | -96.77323 | 3745 ft | 259 kts | 135° |
| 2026-04-28 06:19 | 32.76532 | -96.75776 | 4493 ft | 266 kts | 136° |
| 2026-04-28 06:19 | 32.75206 | -96.74187 | 5299 ft | 272 kts | 138° |
| 2026-04-28 06:19 | 32.73848 | -96.72643 | 6228 ft | 279 kts | 140° |
| 2026-04-28 06:19 | 32.72255 | -96.71366 | 7203 ft | 281 kts | 159° |
| 2026-04-28 06:20 | 32.69720 | -96.70888 | 8479 ft | 282 kts | 187° |
| 2026-04-28 06:20 | 32.68443 | -96.71187 | 9096 ft | 284 kts | 200° |
| 2026-04-28 06:20 | 32.66649 | -96.72113 | 10021 ft | 288 kts | 207° |
| 2026-04-28 06:20 | 32.64813 | -96.73145 | 10757 ft | 301 kts | 206° |
| 2026-04-28 06:21 | 32.62829 | -96.74223 | 11063 ft | 328 kts | 206° |
| 2026-04-28 06:21 | 32.60806 | -96.75593 | 11499 ft | 347 kts | 218° |
| 2026-04-28 06:21 | 32.58897 | -96.77399 | 12300 ft | 355 kts | 221° |
| 2026-04-28 06:21 | 32.56990 | -96.79215 | 13229 ft | 359 kts | 220° |
| 2026-04-28 06:22 | 32.55011 | -96.81061 | 14154 ft | 363 kts | 221° |
| 2026-04-28 06:22 | 32.53041 | -96.82906 | 15048 ft | 367 kts | 221° |
| 2026-04-28 06:22 | 32.51041 | -96.84785 | 15927 ft | 371 kts | 222° |
| 2026-04-28 06:22 | 32.49039 | -96.86666 | 16769 ft | 374 kts | 222° |
| 2026-04-28 06:23 | 32.46992 | -96.88589 | 17593 ft | 378 kts | 223° |
| 2026-04-28 06:23 | 32.44945 | -96.90510 | 18386 ft | 381 kts | 223° |
| 2026-04-28 06:23 | 32.42867 | -96.92459 | 19165 ft | 385 kts | 223° |
| 2026-04-28 06:23 | 32.40051 | -96.95100 | 20174 ft | 390 kts | 224° |
| 2026-04-28 06:24 | 32.38630 | -96.96431 | 20664 ft | 392 kts | 224° |
| 2026-04-28 06:24 | 32.36508 | -96.98418 | 21411 ft | 394 kts | 224° |
| 2026-04-28 06:24 | 32.34349 | -97.00439 | 22136 ft | 396 kts | 224° |
| 2026-04-28 06:24 | 32.32190 | -97.02447 | 22830 ft | 399 kts | 223° |
| 2026-04-28 06:25 | 32.29821 | -97.04234 | 23486 ft | 410 kts | 214° |
| 2026-04-28 06:25 | 32.27150 | -97.05466 | 24096 ft | 424 kts | 202° |
| 2026-04-28 06:25 | 32.24191 | -97.05994 | 24675 ft | 439 kts | 191° |
| 2026-04-28 06:25 | 32.21138 | -97.06081 | 25231 ft | 445 kts | 188° |
| 2026-04-28 06:26 | 32.18020 | -97.06151 | 25762 ft | 448 kts | 189° |
| 2026-04-28 06:26 | 32.14898 | -97.06271 | 26278 ft | 452 kts | 189° |
| 2026-04-28 06:26 | 32.11740 | -97.06394 | 26783 ft | 456 kts | 189° |
| 2026-04-28 06:26 | 32.08596 | -97.06504 | 27268 ft | 460 kts | 189° |
| 2026-04-28 06:27 | 32.05378 | -97.06611 | 27744 ft | 464 kts | 189° |
| 2026-04-28 06:27 | 32.02164 | -97.06716 | 28206 ft | 468 kts | 190° |
| 2026-04-28 06:27 | 31.98896 | -97.06823 | 28693 ft | 470 kts | 190° |
| 2026-04-28 06:27 | 31.95620 | -97.06924 | 29421 ft | 467 kts | 190° |
| 2026-04-28 06:28 | 31.92404 | -97.07024 | 30006 ft | 466 kts | 191° |
| 2026-04-28 06:28 | 31.89190 | -97.07125 | 30560 ft | 465 kts | 191° |
| 2026-04-28 06:28 | 31.85964 | -97.07227 | 31083 ft | 465 kts | 191° |
| 2026-04-28 06:28 | 31.82748 | -97.07327 | 31582 ft | 464 kts | 191° |
| 2026-04-28 06:29 | 31.79530 | -97.07429 | 31947 ft | 465 kts | 191° |
| 2026-04-28 06:29 | 31.73034 | -97.07634 | 31954 ft | 466 kts | 191° |
| 2026-04-28 06:30 | 31.65539 | -97.07862 | 31954 ft | 463 kts | 191° |
| 2026-04-28 06:30 | 31.60202 | -97.08030 | 31954 ft | 463 kts | 191° |
| 2026-04-28 06:31 | 31.53860 | -97.08530 | 31954 ft | 454 kts | 198° |
| 2026-04-28 06:31 | 31.50804 | -97.09280 | 31954 ft | 443 kts | 206° |
| 2026-04-28 06:31 | 31.47897 | -97.10376 | 31955 ft | 438 kts | 210° |
| 2026-04-28 06:32 | 31.42126 | -97.12638 | 31957 ft | 438 kts | 208° |
| 2026-04-28 06:32 | 31.36352 | -97.14848 | 31960 ft | 437 kts | 209° |
| 2026-04-28 06:33 | 31.30612 | -97.17082 | 31966 ft | 443 kts | 209° |
| 2026-04-28 06:33 | 31.24682 | -97.19403 | 31969 ft | 458 kts | 208° |
| 2026-04-28 06:34 | 31.18619 | -97.21760 | 31972 ft | 462 kts | 208° |
| 2026-04-28 06:34 | 31.12549 | -97.24117 | 31972 ft | 460 kts | 208° |
| 2026-04-28 06:35 | 31.06517 | -97.26464 | 31972 ft | 460 kts | 208° |
| 2026-04-28 06:35 | 31.00454 | -97.28820 | 31972 ft | 459 kts | 208° |
| 2026-04-28 06:36 | 30.94428 | -97.31158 | 31972 ft | 456 kts | 208° |
| 2026-04-28 06:36 | 30.88447 | -97.33477 | 31972 ft | 453 kts | 208° |
| 2026-04-28 06:37 | 30.82472 | -97.35792 | 31975 ft | 453 kts | 208° |
| 2026-04-28 06:37 | 30.76541 | -97.38090 | 31978 ft | 454 kts | 208° |
| 2026-04-28 06:38 | 30.70541 | -97.40408 | 31980 ft | 454 kts | 208° |
| 2026-04-28 06:38 | 30.64596 | -97.42702 | 31970 ft | 454 kts | 208° |
| 2026-04-28 06:39 | 30.58628 | -97.45001 | 31959 ft | 449 kts | 208° |
| 2026-04-28 06:39 | 30.55710 | -97.46113 | 31939 ft | 434 kts | 208° |
| 2026-04-28 06:39 | 30.52913 | -97.47182 | 31350 ft | 431 kts | 208° |
| 2026-04-28 06:39 | 30.50069 | -97.48286 | 30530 ft | 434 kts | 208° |
| 2026-04-28 06:40 | 30.47229 | -97.49383 | 29894 ft | 431 kts | 207° |
| 2026-04-28 06:40 | 30.44415 | -97.50462 | 29261 ft | 429 kts | 207° |
| 2026-04-28 06:40 | 30.41623 | -97.51535 | 28618 ft | 426 kts | 207° |
| 2026-04-28 06:40 | 30.38904 | -97.52730 | 27988 ft | 418 kts | 211° |
| 2026-04-28 06:41 | 30.36369 | -97.54202 | 27332 ft | 403 kts | 217° |
| 2026-04-28 06:41 | 30.34002 | -97.55813 | 26705 ft | 390 kts | 217° |
| 2026-04-28 06:41 | 30.31727 | -97.57358 | 26109 ft | 380 kts | 217° |
| 2026-04-28 06:41 | 30.29454 | -97.58882 | 25513 ft | 370 kts | 216° |
| 2026-04-28 06:42 | 30.27300 | -97.60341 | 24950 ft | 360 kts | 216° |
| 2026-04-28 06:42 | 30.24486 | -97.62267 | 24212 ft | 354 kts | 216° |
| 2026-04-28 06:42 | 30.23074 | -97.63238 | 23840 ft | 358 kts | 216° |
| 2026-04-28 06:42 | 30.20948 | -97.64701 | 23266 ft | 354 kts | 216° |
| 2026-04-28 06:43 | 30.18876 | -97.66122 | 22719 ft | 345 kts | 215° |
| 2026-04-28 06:43 | 30.16822 | -97.67537 | 22178 ft | 350 kts | 214° |
| 2026-04-28 06:43 | 30.14728 | -97.68981 | 21611 ft | 347 kts | 214° |
| 2026-04-28 06:43 | 30.12700 | -97.70375 | 21074 ft | 338 kts | 214° |
| 2026-04-28 06:44 | 30.10692 | -97.71757 | 20544 ft | 343 kts | 213° |
| 2026-04-28 06:44 | 30.08649 | -97.73167 | 19988 ft | 341 kts | 213° |
| 2026-04-28 06:44 | 30.06649 | -97.74541 | 19452 ft | 333 kts | 213° |
| 2026-04-28 06:44 | 30.04660 | -97.75910 | 18928 ft | 338 kts | 213° |
| 2026-04-28 06:45 | 30.02639 | -97.77302 | 18393 ft | 336 kts | 212° |
| 2026-04-28 06:45 | 30.00644 | -97.78671 | 17865 ft | 333 kts | 212° |
| 2026-04-28 06:45 | 29.98674 | -97.80026 | 17351 ft | 332 kts | 212° |
| 2026-04-28 06:45 | 29.96706 | -97.81377 | 16823 ft | 332 kts | 212° |
| 2026-04-28 06:46 | 29.94732 | -97.82733 | 16289 ft | 332 kts | 211° |
| 2026-04-28 06:46 | 29.92764 | -97.84084 | 15760 ft | 331 kts | 212° |
| 2026-04-28 06:46 | 29.90912 | -97.85634 | 15224 ft | 331 kts | 223° |
| 2026-04-28 06:46 | 29.89462 | -97.87659 | 14678 ft | 332 kts | 238° |
| 2026-04-28 06:47 | 29.88503 | -97.90063 | 14117 ft | 334 kts | 248° |
| 2026-04-28 06:47 | 29.87701 | -97.92594 | 13541 ft | 335 kts | 248° |
| 2026-04-28 06:47 | 29.86872 | -97.95090 | 13037 ft | 334 kts | 248° |
| 2026-04-28 06:47 | 29.86047 | -97.97528 | 12973 ft | 324 kts | 247° |
| 2026-04-28 06:48 | 29.85221 | -97.99976 | 12996 ft | 331 kts | 248° |
| 2026-04-28 06:48 | 29.84334 | -98.02401 | 12989 ft | 331 kts | 240° |
| 2026-04-28 06:48 | 29.82951 | -98.04479 | 12996 ft | 329 kts | 223° |
| 2026-04-28 06:48 | 29.81236 | -98.06187 | 12738 ft | 324 kts | 220° |
| 2026-04-28 06:49 | 29.79538 | -98.07872 | 12265 ft | 323 kts | 221° |
| 2026-04-28 06:49 | 29.77856 | -98.09586 | 11740 ft | 324 kts | 221° |
| 2026-04-28 06:49 | 29.76157 | -98.11304 | 11200 ft | 326 kts | 221° |
| 2026-04-28 06:49 | 29.74463 | -98.13012 | 10706 ft | 325 kts | 220° |
| 2026-04-28 06:50 | 29.72798 | -98.14690 | 10405 ft | 312 kts | 220° |
| 2026-04-28 06:50 | 29.71239 | -98.16260 | 10287 ft | 293 kts | 220° |
| 2026-04-28 06:50 | 29.69756 | -98.17753 | 10138 ft | 276 kts | 220° |
| 2026-04-28 06:50 | 29.68336 | -98.19181 | 9833 ft | 271 kts | 220° |
| 2026-04-28 06:51 | 29.66921 | -98.20603 | 9463 ft | 270 kts | 220° |
| 2026-04-28 06:51 | 29.65513 | -98.22018 | 9104 ft | 269 kts | 220° |
| 2026-04-28 06:51 | 29.64118 | -98.23419 | 8972 ft | 264 kts | 220° |
| 2026-04-28 06:51 | 29.62715 | -98.24828 | 8956 ft | 264 kts | 220° |
| 2026-04-28 06:52 | 29.61342 | -98.26205 | 8726 ft | 266 kts | 220° |
| 2026-04-28 06:52 | 29.59937 | -98.27615 | 8390 ft | 269 kts | 220° |
| 2026-04-28 06:52 | 29.58535 | -98.29022 | 8042 ft | 267 kts | 220° |
| 2026-04-28 06:52 | 29.57151 | -98.30409 | 7694 ft | 266 kts | 220° |
| 2026-04-28 06:53 | 29.55750 | -98.31813 | 7343 ft | 265 kts | 220° |
| 2026-04-28 06:53 | 29.54367 | -98.33199 | 6995 ft | 264 kts | 220° |
| 2026-04-28 06:53 | 29.52992 | -98.34575 | 6651 ft | 263 kts | 220° |
| 2026-04-28 06:53 | 29.51626 | -98.35943 | 6342 ft | 259 kts | 220° |
| 2026-04-28 06:54 | 29.50313 | -98.37257 | 6230 ft | 243 kts | 220° |
| 2026-04-28 06:54 | 29.49056 | -98.38515 | 6158 ft | 240 kts | 219° |
| 2026-04-28 06:54 | 29.47812 | -98.39758 | 6047 ft | 237 kts | 219° |
| 2026-04-28 06:54 | 29.46594 | -98.40972 | 5963 ft | 222 kts | 219° |
| 2026-04-28 06:55 | 29.45478 | -98.42068 | 5965 ft | 205 kts | 219° |
| 2026-04-28 06:55 | 29.44431 | -98.43098 | 5968 ft | 194 kts | 219° |
| 2026-04-28 06:55 | 29.43422 | -98.44090 | 5973 ft | 186 kts | 219° |
| 2026-04-28 06:55 | 29.42477 | -98.45023 | 5967 ft | 176 kts | 219° |
| 2026-04-28 06:56 | 29.41533 | -98.45952 | 5830 ft | 182 kts | 219° |
| 2026-04-28 06:56 | 29.40581 | -98.46892 | 5557 ft | 177 kts | 219° |
| 2026-04-28 06:56 | 29.39666 | -98.47794 | 5325 ft | 175 kts | 219° |
| 2026-04-28 06:56 | 29.38735 | -98.48714 | 5087 ft | 176 kts | 219° |
| 2026-04-28 06:57 | 29.37929 | -98.49772 | 4860 ft | 177 kts | 237° |
| 2026-04-28 06:57 | 29.37468 | -98.51075 | 4640 ft | 179 kts | 254° |
| 2026-04-28 06:57 | 29.37374 | -98.52491 | 4399 ft | 177 kts | 273° |
| 2026-04-28 06:57 | 29.37665 | -98.53823 | 4194 ft | 171 kts | 290° |
| 2026-04-28 06:58 | 29.38288 | -98.54973 | 4015 ft | 166 kts | 309° |
| 2026-04-28 06:58 | 29.39146 | -98.55836 | 3815 ft | 167 kts | 327° |
| 2026-04-28 06:58 | 29.40203 | -98.56363 | 3628 ft | 167 kts | 345° |
| 2026-04-28 06:58 | 29.41351 | -98.56514 | 3447 ft | 166 kts | 4° |
| 2026-04-28 06:59 | 29.42460 | -98.56220 | 3222 ft | 165 kts | 28° |
| 2026-04-28 06:59 | 29.43425 | -98.55557 | 3013 ft | 163 kts | 36° |
| 2026-04-28 06:59 | 29.44348 | -98.54810 | 2795 ft | 161 kts | 39° |
| 2026-04-28 06:59 | 29.45233 | -98.54030 | 2586 ft | 160 kts | 41° |
| 2026-04-28 07:00 | 29.46099 | -98.53227 | 2402 ft | 157 kts | 43° |
| 2026-04-28 07:00 | 29.46910 | -98.52426 | 2224 ft | 157 kts | 44° |
| 2026-04-28 07:00 | 29.47735 | -98.51583 | 1984 ft | 154 kts | 46° |
| 2026-04-28 07:00 | 29.48520 | -98.50748 | 1780 ft | 154 kts | 46° |
| 2026-04-28 07:01 | 29.49314 | -98.49923 | 1585 ft | 156 kts | 45° |
| 2026-04-28 07:01 | 29.50140 | -98.49123 | 1381 ft | 153 kts | 42° |
| 2026-04-28 07:01 | 29.50962 | -98.48359 | 1183 ft | 151 kts | 43° |
| 2026-04-28 07:01 | 29.51768 | -98.47564 | 992 ft | 155 kts | 46° |
| 2026-04-28 07:02 | 29.52560 | -98.46763 | 825 ft | 146 kts | 45° |
| 2026-04-28 07:02 | 29.53223 | -98.46092 | 819 ft | 101 kts | 40° |
| 2026-04-28 07:02 | 29.53598 | -98.45711 | 818 ft | 54 kts | 42° |
| 2026-04-28 07:02 | 29.53847 | -98.45480 | 818 ft | 38 kts | 38° |
| 2026-04-28 07:03 | 29.54004 | -98.45346 | 818 ft | 16 kts | 8° |
| 2026-04-28 07:03 | 29.54076 | -98.45407 | 818 ft | 11 kts | 285° |
| 2026-04-28 07:03 | 29.54034 | -98.45481 | 818 ft | 13 kts | 220° |
| 2026-04-28 07:03 | 29.53957 | -98.45557 | 818 ft | 15 kts | 224° |
| 2026-04-28 07:04 | 29.53870 | -98.45645 | 818 ft | 19 kts | 221° |
| 2026-04-28 07:04 | 29.53748 | -98.45766 | 818 ft | 27 kts | 221° |
| 2026-04-28 07:04 | 29.53592 | -98.45921 | 818 ft | 31 kts | 221° |
| 2026-04-28 07:04 | 29.53424 | -98.46087 | 818 ft | 31 kts | 220° |
| 2026-04-28 07:05 | 29.53256 | -98.46252 | 818 ft | 30 kts | 221° |
| 2026-04-28 07:05 | 29.53101 | -98.46408 | 818 ft | 28 kts | 221° |
| 2026-04-28 07:05 | 29.52954 | -98.46554 | 818 ft | 26 kts | 222° |
| 2026-04-28 07:05 | 29.52842 | -98.46664 | 818 ft | 18 kts | 221° |
| 2026-04-28 07:06 | 29.52751 | -98.46756 | 818 ft | 15 kts | 221° |
| 2026-04-28 07:06 | 29.52724 | -98.46847 | 818 ft | 12 kts | 306° |
| 2026-04-28 07:06 | 29.52789 | -98.46935 | 818 ft | 16 kts | 309° |
| 2026-04-28 07:06 | 29.52853 | -98.47034 | 818 ft | 13 kts | 266° |
| 2026-04-28 07:07 | 29.52804 | -98.47101 | 818 ft | 8 kts | 219° |
| 2026-04-28 07:07 | 29.52754 | -98.47101 | 818 ft | 7 kts | 150° |
| 2026-04-28 07:07 | 29.52733 | -98.47087 | 818 ft | 0 kts | 148° |